עמוד ראשי
METAR-TAF:

METAR-TAF

שדות תעופה :

מנדוסה, ארגנטינה

קו רוחב: 32-50S, קו אורך: 068-47W, גובה: 705מטר

תצפית מזג אוויר נוכחית

הדו"ח נערך לפני 31דקות, בשעה 02:00 UTC
רוח 4קשר מכיוון דרום/דרום-מערב
טמפרטורת 10 צלסיוס
לחות 66%
לחץ 1016 hPa
ראות 10 קילומטר או יותר
מעט עננים בגובה 4500רגל

METAR: SAME 200200Z 20004KT 9999 FEW045 10/04 Q1016

זמן: 23:31 (02:31 UTC)

תחזית

הדו"ח נערך לפני 3 שעות ו 31דקות, בשעה 23:00 UTC
תחזית בתוקף מ 20 ב 00 UTC עד 20 ב 24 UTC
רוח 10קשר מכיוון דרום/דרום-מזרח
ראות 10 קילומטר או יותר
עננים פזורים בגובה 3500רגל
יעשה מ
20 ב 02 UTC עד 20 ב 04 UTC
רוח 5קשר מכיוון מערב
יעשה מ
20 ב 15 UTC עד 20 ב 17 UTC
רוח 10קשר מכיוון צפון-מזרח
יעשה מ
20 ב 20 UTC עד 20 ב 22 UTC
רוח 5קשר מכיוון דרום

TAF: SAME 192300Z 2000/2024 16010KT 9999 SCT035 TX18/2020Z TN04/2011Z BECMG 2002/2004 28005KT BECMG 2015/2017 05010KT BECMG 2020/2022 18005KT

תצפיות ותחזיות מזג אוויר לגבי יותר מ- 4,000 שדות תעופה ברחבי העולם. דוחות METAR ו- TAF.

התחנות הזמינות מסומנות בנקודות צהובות ואדומות על גבי המפה.

העבר את העכבר לנקודה הצבעונית על מנת לראות את שם התחנה.

לאחר מכן, לחץ כדי לראות את תוכן ואת תחזיות מזג האוויר.

כדי לשנות את המפה: לחץ על הכפתורים הירוקים עם הפלוס השחור כדי להתקרב; על הכפתור הירוק עם המקף כדי להתרחק; או בחיצים הירוקים למפות סמוכות.


METAR-TAF: